createdAt,value
2018-04-01T00:01:39.477Z,8.40
2018-04-01T00:04:07.314Z,8.37
2018-04-01T00:06:34.422Z,9.23
2018-04-01T00:09:02.291Z,9.30
2018-04-01T00:11:29.402Z,8.43
2018-04-01T00:13:57.281Z,7.60
2018-04-01T00:16:24.362Z,8.37
2018-04-01T00:18:52.234Z,7.93
2018-04-01T00:21:19.314Z,7.83
2018-04-01T00:23:47.186Z,8.03
2018-04-01T00:26:14.261Z,7.47
2018-04-01T00:28:41.470Z,8.33
2018-04-01T00:31:08.578Z,7.70
2018-04-01T00:33:35.653Z,8.67
2018-04-01T00:36:02.763Z,7.87
2018-04-01T00:38:29.841Z,7.80
2018-04-01T00:40:56.950Z,7.50
2018-04-01T00:43:24.794Z,7.20
2018-04-01T00:45:51.905Z,7.47
2018-04-01T00:48:19.019Z,7.50
2018-04-01T00:50:46.128Z,7.50
2018-04-01T00:53:13.264Z,7.53
2018-04-01T00:55:40.401Z,8.00
2018-04-01T00:58:08.323Z,8.63
2018-04-01T01:00:35.467Z,9.10
2018-04-01T01:03:03.383Z,7.97
2018-04-01T01:05:30.571Z,8.07
2018-04-01T01:07:57.698Z,8.00
2018-04-01T01:10:24.880Z,7.77
2018-04-01T01:12:52.014Z,8.33
2018-04-01T01:15:19.171Z,8.80
2018-04-01T01:17:46.339Z,8.53
2018-04-01T01:20:13.470Z,8.20
2018-04-01T01:22:40.680Z,7.87
2018-04-01T01:25:08.591Z,8.20
2018-04-01T01:27:35.779Z,7.77
2018-04-01T01:30:02.934Z,7.83
2018-04-01T01:32:30.122Z,8.03
2018-04-01T01:34:57.280Z,7.23
2018-04-01T01:37:24.414Z,7.67
2018-04-01T01:39:51.573Z,7.03
2018-04-01T01:42:18.715Z,6.33
2018-04-01T01:44:45.932Z,6.17
2018-04-01T01:47:13.073Z,7.10
2018-04-01T01:49:40.227Z,7.60
2018-04-01T01:52:07.451Z,6.37
2018-04-01T01:54:34.593Z,6.43
2018-04-01T01:57:01.796Z,6.03
2018-04-01T01:59:28.965Z,6.17
2018-04-01T02:01:56.158Z,5.80
2018-04-01T02:04:23.312Z,5.60
2018-04-01T02:06:51.271Z,7.67
2018-04-01T02:09:19.190Z,5.83
2018-04-01T02:23:36.696Z,5.17
2018-04-01T02:26:03.823Z,4.80
2018-04-01T02:28:30.979Z,6.27
2018-04-01T02:30:58.152Z,5.53
2018-04-01T02:33:25.255Z,4.40
2018-04-01T02:35:52.439Z,5.00
2018-04-01T02:38:19.601Z,4.00
2018-04-01T02:40:46.796Z,5.40
2018-04-01T02:43:13.952Z,4.60
2018-04-01T02:45:41.132Z,5.57
2018-04-01T02:48:08.329Z,5.27
2018-04-01T02:50:35.458Z,5.80
2018-04-01T02:53:02.628Z,6.17
2018-04-01T02:55:30.659Z,5.37
2018-04-01T02:57:57.831Z,4.00
2018-04-01T03:00:24.982Z,4.33
2018-04-01T03:02:52.179Z,3.90
2018-04-01T03:05:19.354Z,3.87
2018-04-01T03:07:46.518Z,4.43
2018-04-01T03:10:13.711Z,4.27
2018-04-01T03:12:40.852Z,3.90
2018-04-01T03:15:08.064Z,4.10
2018-04-01T03:17:35.218Z,3.87
2018-04-01T03:20:02.375Z,3.53
2018-04-01T03:22:29.475Z,5.20
2018-04-01T03:24:56.610Z,4.40
2018-04-01T03:27:24.522Z,4.97
2018-04-01T03:29:51.659Z,3.77
2018-04-01T03:32:18.822Z,4.00
2018-04-01T03:34:45.948Z,6.90
2018-04-01T03:37:13.123Z,4.60
2018-04-01T03:39:40.275Z,4.40
2018-04-01T03:42:08.185Z,5.00
2018-04-01T03:44:35.314Z,5.00
2018-04-01T03:47:02.479Z,4.40
2018-04-01T03:49:29.703Z,7.63
2018-04-01T03:51:56.827Z,5.83
2018-04-01T03:54:23.964Z,5.53
2018-04-01T03:56:51.087Z,5.50
2018-04-01T03:59:19.036Z,5.87
2018-04-01T04:01:46.231Z,5.10
2018-04-01T04:04:13.343Z,5.10
2018-04-01T04:06:40.556Z,5.53
2018-04-01T04:09:07.695Z,5.20
2018-04-01T04:11:34.869Z,5.47
2018-04-01T04:14:01.983Z,5.93
2018-04-01T04:16:29.152Z,5.43
2018-04-01T04:18:56.343Z,7.13
2018-04-01T04:21:23.467Z,5.43
2018-04-01T04:23:50.627Z,4.53
2018-04-01T04:26:17.736Z,7.27
2018-04-01T04:28:45.627Z,4.83
2018-04-01T04:31:13.533Z,4.87
2018-04-01T04:33:40.687Z,5.07
2018-04-01T04:36:07.803Z,3.83
2018-04-01T04:38:35.016Z,3.50
2018-04-01T04:41:02.181Z,4.20
2018-04-01T04:43:29.322Z,4.23
2018-04-01T04:45:56.508Z,4.00
2018-04-01T04:48:23.664Z,3.60
2018-04-01T04:50:50.870Z,4.27
2018-04-01T04:53:17.991Z,4.57
2018-04-01T04:55:45.191Z,3.90
2018-04-01T04:58:13.123Z,3.87
2018-04-01T05:00:40.278Z,3.97
2018-04-01T05:03:07.473Z,5.07
2018-04-01T05:05:34.591Z,3.87
2018-04-01T05:08:02.527Z,3.60
2018-04-01T05:10:29.674Z,3.93
2018-04-01T05:12:57.603Z,4.10
2018-04-01T05:15:24.752Z,3.87
2018-04-01T05:17:52.648Z,3.43
2018-04-01T05:20:19.927Z,3.83
2018-04-01T05:22:47.099Z,4.13
2018-04-01T05:25:14.353Z,4.30
2018-04-01T05:27:41.476Z,5.57
2018-04-01T05:30:08.676Z,5.43
2018-04-01T05:32:35.840Z,5.53
2018-04-01T05:35:03.122Z,4.53
2018-04-01T05:37:31.067Z,6.03
2018-04-01T05:39:58.934Z,8.10
2018-04-01T05:42:26.073Z,5.80
2018-04-01T05:44:53.198Z,6.20
2018-04-01T05:47:21.147Z,5.67
2018-04-01T05:49:48.311Z,5.70
2018-04-01T05:52:15.443Z,7.17
2018-04-01T05:54:42.635Z,6.70
2018-04-01T05:57:10.905Z,6.17
2018-04-01T05:59:38.148Z,6.00
2018-04-01T06:02:05.274Z,6.70
2018-04-01T06:04:32.414Z,6.03
2018-04-01T06:06:59.568Z,6.47
2018-04-01T06:09:26.720Z,6.70
2018-04-01T06:11:58.641Z,6.47
2018-04-01T06:14:25.795Z,6.83
2018-04-01T06:16:52.997Z,6.93
2018-04-01T06:19:20.131Z,7.20
2018-04-01T06:21:48.073Z,6.53
2018-04-01T06:24:20.491Z,7.50
2018-04-01T06:26:47.656Z,7.47
2018-04-01T06:29:14.788Z,7.50
2018-04-01T06:31:42.722Z,6.87
2018-04-01T06:34:09.839Z,7.27
2018-04-01T06:36:36.987Z,7.63
2018-04-01T06:39:04.171Z,6.40
2018-04-01T06:41:32.262Z,6.87
2018-04-01T06:43:59.421Z,6.90
2018-04-01T06:46:26.546Z,6.33
2018-04-01T06:48:53.679Z,6.30
2018-04-01T06:51:20.868Z,6.20
2018-04-01T06:53:47.989Z,7.63
2018-04-01T06:56:15.302Z,6.33
2018-04-01T06:58:43.211Z,6.00
2018-04-01T07:01:10.383Z,6.00
2018-04-01T07:03:37.514Z,6.20
2018-04-01T07:06:04.668Z,6.83
2018-04-01T07:08:31.822Z,5.67
2018-04-01T07:10:58.958Z,6.57
2018-04-01T07:13:26.883Z,6.40
2018-04-01T07:15:54.016Z,6.40
2018-04-01T07:18:21.158Z,7.70
2018-04-01T07:20:48.298Z,6.60
2018-04-01T07:23:16.228Z,5.80
2018-04-01T07:25:43.382Z,6.40
2018-04-01T07:28:10.506Z,6.00
2018-04-01T07:30:37.661Z,8.37
2018-04-01T07:33:04.767Z,6.57
2018-04-01T07:35:32.193Z,6.73
2018-04-01T07:37:59.319Z,6.20
2018-04-01T07:40:26.486Z,6.50
2018-04-01T07:42:53.647Z,6.50
2018-04-01T07:45:20.796Z,6.93
2018-04-01T07:47:59.220Z,7.10
2018-04-01T07:50:28.795Z,6.90
2018-04-01T07:52:56.787Z,7.67
2018-04-01T07:55:23.930Z,7.40
2018-04-01T07:57:51.359Z,6.67
2018-04-01T08:00:18.537Z,7.23
2018-04-01T08:02:45.646Z,8.00
2018-04-01T08:05:12.831Z,7.30
2018-04-01T08:07:39.963Z,7.50
2018-04-01T08:10:07.126Z,7.23
2018-04-01T08:12:34.255Z,7.77
2018-04-01T08:15:01.418Z,8.27
2018-04-01T08:17:28.762Z,8.27
2018-04-01T08:19:55.922Z,6.77
2018-04-01T08:22:23.946Z,6.50
2018-04-01T08:24:51.088Z,7.30
2018-04-01T08:27:18.250Z,6.93
2018-04-01T08:29:45.385Z,6.20
2018-04-01T08:32:12.548Z,6.37
2018-04-01T08:34:39.688Z,6.23
2018-04-01T08:37:06.839Z,6.23
2018-04-01T08:39:34.134Z,6.10
2018-04-01T08:42:01.285Z,6.57
2018-04-01T08:44:28.473Z,5.83
2018-04-01T08:46:55.601Z,5.67
2018-04-01T08:49:23.506Z,6.10
2018-04-01T08:51:50.622Z,6.10
2018-04-01T08:54:20.448Z,5.83
2018-04-01T08:56:48.393Z,6.27
2018-04-01T08:59:15.509Z,5.40
2018-04-01T09:01:43.746Z,5.47
2018-04-01T09:04:10.878Z,4.93
2018-04-01T09:06:38.045Z,5.40
2018-04-01T09:09:05.193Z,5.07
2018-04-01T09:11:32.361Z,5.10
2018-04-01T09:13:59.526Z,4.90
2018-04-01T09:16:26.694Z,5.07
2018-04-01T09:18:53.847Z,4.73
2018-04-01T09:21:20.993Z,6.33
2018-04-01T09:23:48.143Z,4.53
2018-04-01T09:26:15.272Z,5.03
2018-04-01T09:28:42.411Z,4.27
2018-04-01T09:31:09.572Z,4.40
2018-04-01T09:33:36.719Z,5.20
2018-04-01T09:36:04.675Z,4.77
2018-04-01T09:38:31.791Z,4.83
2018-04-01T09:40:59.728Z,4.50
2018-04-01T09:43:26.849Z,4.30
2018-04-01T09:45:54.772Z,4.13
2018-04-01T09:48:21.903Z,5.70
2018-04-01T09:50:49.015Z,3.80
2018-04-01T09:53:16.174Z,4.60
2018-04-01T09:55:43.902Z,4.20
2018-04-01T09:58:11.121Z,4.30
2018-04-01T10:00:48.787Z,3.90
2018-04-01T10:03:16.422Z,4.90
2018-04-01T10:05:44.032Z,4.80
2018-04-01T10:08:12.432Z,5.00
2018-04-01T10:10:40.859Z,5.70
2018-04-01T10:13:08.483Z,5.43
2018-04-01T10:15:36.115Z,6.70
2018-04-01T10:18:04.500Z,3.33
2018-04-01T10:20:33.137Z,2.80
2018-04-01T10:23:00.838Z,3.17
2018-04-01T10:25:28.452Z,2.80
2018-04-01T10:27:56.098Z,2.70
2018-04-01T10:30:24.509Z,2.70
2018-04-01T10:32:52.914Z,3.00
2018-04-01T10:35:21.303Z,3.30
2018-04-01T10:37:48.932Z,4.00
2018-04-01T10:40:16.562Z,4.47
2018-04-01T10:42:44.203Z,2.27
2018-04-01T10:45:12.071Z,2.20
2018-04-01T10:47:40.470Z,2.60
2018-04-01T10:50:08.898Z,3.33
2018-04-01T10:52:36.503Z,3.70
2018-04-01T10:55:03.765Z,4.90
2018-04-01T10:57:31.653Z,5.13
2018-04-01T10:59:58.818Z,6.50
2018-04-01T11:02:47.003Z,6.30
2018-04-01T11:05:14.174Z,6.30
2018-04-01T11:07:42.115Z,5.90
2018-04-01T11:10:09.246Z,6.73
2018-04-01T11:12:36.447Z,6.30
2018-04-01T11:15:03.571Z,6.83
2018-04-01T11:17:30.762Z,6.57
2018-04-01T11:19:58.641Z,7.10
2018-04-01T11:22:26.599Z,7.00
2018-04-01T11:24:53.756Z,8.90
2018-04-01T11:27:20.894Z,6.60
2018-04-01T11:29:48.823Z,6.20
2018-04-01T11:32:15.947Z,5.77
2018-04-01T11:34:43.113Z,5.83
2018-04-01T11:37:10.240Z,5.07
2018-04-01T11:39:37.377Z,6.00
2018-04-01T11:42:04.516Z,20.00
2018-04-01T11:44:31.663Z,38.60
2018-04-01T11:46:58.830Z,5.50
2018-04-01T11:49:26.755Z,3.70
2018-04-01T11:51:53.870Z,3.73
2018-04-01T11:54:21.054Z,4.50
2018-04-01T11:56:48.205Z,3.40
2018-04-01T11:59:15.343Z,3.67
2018-04-01T12:01:42.471Z,4.00
2018-04-01T12:04:09.661Z,3.93
2018-04-01T12:06:37.555Z,3.97
2018-04-01T12:09:05.487Z,3.10
2018-04-01T12:11:32.623Z,3.30
2018-04-01T12:14:00.534Z,2.90
2018-04-01T12:16:27.683Z,4.43
2018-04-01T12:18:55.573Z,3.83
2018-04-01T12:21:23.500Z,5.93
2018-04-01T12:23:50.634Z,3.27
2018-04-01T12:26:17.803Z,3.27
2018-04-01T12:28:44.948Z,3.13
2018-04-01T12:31:12.147Z,3.17
2018-04-01T12:33:39.285Z,2.93
2018-04-01T12:36:06.448Z,3.90
2018-04-01T12:38:33.612Z,3.40
2018-04-01T12:41:00.761Z,3.40
2018-04-01T12:43:28.670Z,3.60
2018-04-01T12:45:56.587Z,3.70
2018-04-01T12:48:23.745Z,3.30
2018-04-01T12:50:50.876Z,3.40
2018-04-01T12:53:18.039Z,3.97
2018-04-01T12:55:45.231Z,10.60
2018-04-01T12:58:12.358Z,4.00
2018-04-01T13:00:39.531Z,3.93
2018-04-01T13:03:06.644Z,4.20
2018-04-01T13:05:33.779Z,4.67
2018-04-01T13:08:00.899Z,4.17
2018-04-01T13:10:28.056Z,4.60
2018-04-01T13:12:55.404Z,4.77
2018-04-01T13:15:22.566Z,4.33
2018-04-01T13:17:50.484Z,4.43
2018-04-01T13:20:17.622Z,4.90
2018-04-01T13:22:45.551Z,5.00
2018-04-01T13:25:12.706Z,4.87
2018-04-01T13:27:39.874Z,4.70
2018-04-01T13:30:07.768Z,5.23
2018-04-01T13:32:35.686Z,5.43
2018-04-01T13:35:04.056Z,4.87
2018-04-01T13:37:31.959Z,4.87
2018-04-01T13:39:59.118Z,5.50
2018-04-01T13:42:26.276Z,4.40
2018-04-01T13:44:53.615Z,2.83
2018-04-01T13:47:20.747Z,2.40
2018-04-01T13:49:48.659Z,1.97
2018-04-01T13:52:15.859Z,2.97
2018-04-01T13:54:43.052Z,2.03
2018-04-01T13:57:10.162Z,2.13
2018-04-01T13:59:57.837Z,2.40
2018-04-01T14:02:26.230Z,3.53
2018-04-01T14:04:53.342Z,3.00
2018-04-01T14:07:20.536Z,3.17
2018-04-01T14:09:47.681Z,4.27
2018-04-01T14:12:14.848Z,3.90
2018-04-01T14:14:41.963Z,4.53
2018-04-01T14:17:09.911Z,4.80
2018-04-01T14:19:37.043Z,3.57
2018-04-01T14:22:04.988Z,5.17
2018-04-01T14:24:32.160Z,4.13
2018-04-01T14:26:59.302Z,3.93
2018-04-01T14:29:26.446Z,4.40
2018-04-01T14:31:53.584Z,6.60
2018-04-01T14:34:20.817Z,4.73
2018-04-01T14:36:49.368Z,9.23
2018-04-01T14:39:16.531Z,4.73
2018-04-01T14:41:44.441Z,3.13
2018-04-01T14:44:11.555Z,4.40
2018-04-01T14:46:38.691Z,5.73
2018-04-01T14:49:07.048Z,3.90
2018-04-01T14:51:35.032Z,4.80
2018-04-01T14:54:02.175Z,4.37
2018-04-01T14:56:29.325Z,4.47
2018-04-01T14:58:57.248Z,5.97
2018-04-01T15:18:57.131Z,2.87
2018-04-01T15:21:24.301Z,3.33
2018-04-01T15:23:51.428Z,4.80
2018-04-01T15:26:18.591Z,5.17
2018-04-01T15:28:46.463Z,3.37
2018-04-01T15:31:14.392Z,3.43
2018-04-01T15:33:41.563Z,5.77
2018-04-01T15:36:08.721Z,5.03
2018-04-01T15:38:36.676Z,3.57
2018-04-01T15:41:04.107Z,2.87
2018-04-01T15:43:32.138Z,2.87
2018-04-01T15:45:59.262Z,2.47
2018-04-01T15:48:26.445Z,2.30
2018-04-01T15:50:53.551Z,2.20
2018-04-01T15:53:21.494Z,2.20
2018-04-01T15:55:48.651Z,3.50
2018-04-01T15:58:15.788Z,3.30
2018-04-01T16:00:43.734Z,3.00
2018-04-01T16:03:10.867Z,2.60
2018-04-01T16:17:27.533Z,3.50
2018-04-01T16:19:55.191Z,3.40
2018-04-01T16:22:22.327Z,3.53
2018-04-01T16:24:49.479Z,4.30
2018-04-01T16:27:17.370Z,4.07
2018-04-01T16:29:44.583Z,4.30
2018-04-01T16:32:12.016Z,4.57
2018-04-01T16:37:51.199Z,4.73
2018-04-01T16:40:18.338Z,4.67
2018-04-01T16:42:45.487Z,5.40
2018-04-01T16:45:12.623Z,5.20
2018-04-01T16:47:39.790Z,4.80
2018-04-01T16:50:25.031Z,4.53
2018-04-01T16:53:04.357Z,4.67
2018-04-01T16:58:46.434Z,4.77
2018-04-01T17:01:13.574Z,6.33
2018-04-01T17:03:40.716Z,5.50
2018-04-01T17:06:07.889Z,5.40
2018-04-01T17:08:35.028Z,4.50
2018-04-01T17:11:02.186Z,4.80
2018-04-01T17:13:30.083Z,3.70
2018-04-01T17:15:57.240Z,3.90
2018-04-01T17:18:25.183Z,3.87
2018-04-01T17:20:52.303Z,3.30
2018-04-01T17:23:19.460Z,3.50
2018-04-01T17:25:46.579Z,3.77
2018-04-01T17:28:14.491Z,3.67
2018-04-01T17:30:41.627Z,3.57
2018-04-01T17:33:08.781Z,3.90
2018-04-01T17:38:50.446Z,4.00
2018-04-01T17:41:17.572Z,4.10
2018-04-01T17:43:44.692Z,4.43
2018-04-01T17:46:11.858Z,5.17
2018-04-01T17:48:38.984Z,4.90
2018-04-01T17:51:06.150Z,5.40
2018-04-01T17:53:34.050Z,6.10
2018-04-01T17:56:01.273Z,4.93
2018-04-01T17:58:28.433Z,6.33
2018-04-01T18:00:55.547Z,6.70
2018-04-01T18:03:22.700Z,6.27
2018-04-01T18:05:49.839Z,6.70
2018-04-01T18:08:17.079Z,7.03
2018-04-01T18:22:36.975Z,4.50
2018-04-01T18:25:04.140Z,4.13
2018-04-01T18:27:32.066Z,4.37
2018-04-01T18:29:59.206Z,4.67
2018-04-01T18:32:26.407Z,3.70
2018-04-01T18:34:54.280Z,3.93
2018-04-01T18:37:22.191Z,3.77
2018-04-01T18:39:49.319Z,3.67
2018-04-01T18:42:16.564Z,4.23
2018-04-01T18:44:43.703Z,4.73
2018-04-01T18:47:11.612Z,4.53
2018-04-01T18:49:38.775Z,4.73
2018-04-01T18:52:06.675Z,4.53
2018-04-01T18:54:33.850Z,6.23
2018-04-01T18:57:00.987Z,6.03
2018-04-01T18:59:28.131Z,6.30
2018-04-01T19:01:55.327Z,8.50
2018-04-01T19:04:22.451Z,9.70
2018-04-01T19:06:49.652Z,9.93
2018-04-01T19:09:16.808Z,8.53
2018-04-01T19:11:43.943Z,8.30
2018-04-01T19:14:11.090Z,10.17
2018-04-01T19:16:50.566Z,7.53
2018-04-01T19:19:18.165Z,6.37
2018-04-01T19:21:45.859Z,6.37
2018-04-01T19:24:13.571Z,5.90
2018-04-01T19:26:41.215Z,6.30
2018-04-01T19:29:08.867Z,5.90
2018-04-01T19:31:37.275Z,5.70
2018-04-01T19:34:05.702Z,6.17
2018-04-01T19:36:33.332Z,5.80
2018-04-01T19:39:00.996Z,6.17
2018-04-01T19:41:29.406Z,6.30
2018-04-01T19:43:57.863Z,6.20
2018-04-01T19:46:26.327Z,6.03
2018-04-01T19:48:53.951Z,5.93
2018-04-01T19:51:22.572Z,7.47
2018-04-01T19:53:50.253Z,8.47
2018-04-01T19:56:17.892Z,6.77
2018-04-01T19:58:45.511Z,6.73
2018-04-01T20:01:13.179Z,6.97
2018-04-01T20:03:40.799Z,6.33
2018-04-01T20:06:08.442Z,6.83
2018-04-01T20:08:36.814Z,6.70
2018-04-01T20:11:04.460Z,7.00
2018-04-01T20:13:32.109Z,7.33
2018-04-01T20:15:59.981Z,6.90
2018-04-01T20:18:27.928Z,7.67
2018-04-01T20:20:56.324Z,8.77
2018-04-01T20:23:24.743Z,8.00
2018-04-01T20:25:52.388Z,7.77
2018-04-01T20:28:20.100Z,7.43
2018-04-01T20:30:48.744Z,6.83
2018-04-01T20:33:16.379Z,7.50
2018-04-01T20:35:44.024Z,7.37
2018-04-01T20:41:06.923Z,7.23
2018-04-01T20:43:35.327Z,7.33
2018-04-01T20:46:03.778Z,7.50
2018-04-01T20:48:31.407Z,8.30
2018-04-01T20:50:59.844Z,7.43
2018-04-01T20:53:27.539Z,6.73
2018-04-01T20:55:55.175Z,6.90
2018-04-01T20:58:22.836Z,6.73
2018-04-01T21:00:50.464Z,7.00
2018-04-01T21:03:18.406Z,8.40
2018-04-01T21:14:45.219Z,7.53
2018-04-01T21:17:13.588Z,7.33
2018-04-01T21:19:41.225Z,8.37
2018-04-01T21:25:04.049Z,8.10
2018-04-01T21:27:31.772Z,9.40
2018-04-01T21:29:59.388Z,9.00
2018-04-01T21:32:27.114Z,9.13
2018-04-01T21:34:54.727Z,9.90
2018-04-01T21:37:22.423Z,10.27
2018-04-01T21:39:50.789Z,9.03
2018-04-01T21:42:18.435Z,9.57
2018-04-01T21:44:46.092Z,8.73
2018-04-01T21:47:13.758Z,10.30
2018-04-01T21:49:41.401Z,11.17
2018-04-01T21:52:09.003Z,9.93
2018-04-01T21:54:36.710Z,10.00
2018-04-01T21:57:04.315Z,11.13
2018-04-01T21:59:31.972Z,12.77
2018-04-01T22:01:59.594Z,13.73
2018-04-01T22:04:27.252Z,13.20
2018-04-01T22:06:54.920Z,12.47
2018-04-01T22:09:22.563Z,13.63
2018-04-01T22:11:50.214Z,12.03
2018-04-01T22:14:17.851Z,12.43
2018-04-01T22:16:46.303Z,12.33
2018-04-01T22:19:13.932Z,13.17
2018-04-01T22:21:41.599Z,13.80
2018-04-01T22:24:09.259Z,13.60
2018-04-01T22:26:36.915Z,13.77
2018-04-01T22:29:05.291Z,13.90
2018-04-01T22:31:32.930Z,13.50
2018-04-01T22:34:00.586Z,14.30
2018-04-01T22:36:28.995Z,15.07
2018-04-01T22:38:56.659Z,13.50
2018-04-01T22:41:24.288Z,16.57
2018-04-01T22:43:51.965Z,16.87
2018-04-01T22:46:19.609Z,14.87
2018-04-01T22:48:47.254Z,14.53
2018-04-01T22:51:14.948Z,14.47
2018-04-01T22:53:42.571Z,15.10
2018-04-01T22:56:10.224Z,15.87
2018-04-01T22:58:37.836Z,17.63
2018-04-01T23:01:05.538Z,16.33
2018-04-01T23:03:33.151Z,16.60
2018-04-01T23:06:00.802Z,15.43
2018-04-01T23:08:28.412Z,16.20
2018-04-01T23:10:56.851Z,15.80
2018-04-01T23:13:24.508Z,15.30
2018-04-01T23:15:52.872Z,16.57
2018-04-01T23:18:20.564Z,15.57
2018-04-01T23:20:48.191Z,16.00
2018-04-01T23:23:15.875Z,15.87
2018-04-01T23:25:43.516Z,16.17
2018-04-01T23:28:11.175Z,15.87
2018-04-01T23:30:38.843Z,16.47
2018-04-01T23:33:06.499Z,16.47
2018-04-01T23:35:34.936Z,16.87
2018-04-01T23:38:02.575Z,16.60
2018-04-01T23:40:30.212Z,14.60
2018-04-01T23:42:57.882Z,14.80
2018-04-01T23:45:26.311Z,16.77
2018-04-01T23:47:53.996Z,16.40
2018-04-01T23:50:21.627Z,14.90
2018-04-01T23:52:49.298Z,15.90
2018-04-01T23:55:16.928Z,15.33
2018-04-01T23:57:46.283Z,15.73
